Atwood, CA (92811)

4:19 PM PDT on May 25, 2017 (GMT -0700)
Richfield Pines - North | | Change Station

Elev 305 ft 33.88 °N, 117.82 °W | Updated 25 seconds ago

Partly Cloudy
Partly Cloudy
71.5 °F
Feels Like 76 °F
N
4.0
Wind Variable Wind from WSW

Today
High -- | Low -- °F
--% Chance of Precip.
Yesterday
High -- | Low -- °F
Precip. -- in
Pressure 29.85 in
Visibility 10.0 miles
Clouds Overcast 4100 ft
Heat Index 76 °F
Dew Point 56 °F
Humidity 58%
Rainfall 0.00 in
Snow Depth Not available.
5:43 AM 7:52 PM
New Moon, 0% visible
METAR KFUL 252253Z 21007KT 10SM OVC041 21/09 A2985 RMK AO2 SLP107 T02060094
Pressure 29.85 in
Visibility 10.0 miles
Clouds Overcast 4100 ft
Heat Index 76 °F
Dew Point 56 °F
Humidity 58%
Rainfall 0.00 in
Snow Depth Not available.
5:43 AM 7:52 PM
New Moon, 0% visible
METAR KFUL 252253Z 21007KT 10SM OVC041 21/09 A2985 RMK AO2 SLP107 T02060094

Get Severe Weather Alerts

Thanks for signing up!

Be on the lookout for a verification email in your inbox.

You'll start receiving the daily forecast at 6 AM.

×

10-Day Weather Forecast

Almanac

Astronomy

May. 25, 2017 Rise Set
Actual Time
Civil Twilight
Nautical Twilight
Astronomical Twilight
Moon
Length of Visible Light
Length of Day
Tomorrow will be .
, % of the Moon is Illuminated

Today's Extremes

State Highs State Lows

Community

WunderPhotos

Category 6

Welcome to Category 6. This is the collective home for Weather Underground's featured writeups by Dr. Jeff Masters (right), Bob Henson (left), Chris Burt, and other regular contributors.

Nearby

Air Quality

  Air Quality AQ Index Pollutant
Not available.

Snow Depth

Station Depth Elevation

Earthquake Activity

City Distance Mag. Time & Date
Minimum magnitude displayed is 2.5.

Coastal Water Temperatures

Place Temperature

Stations

Nearby Weather Stations

Station Location Temp. Windchill Dew Point Humidity Wind Precip. Elev Updated Type
                   

Watches & Warnings

There are currently no watches in effect.